Terminal Aerodrome Forecast
Issued by NWS Cleveland, OH

Home | Current Version | Previous Version | Graphics & Text | Print | Product List | Glossary On
Versions: 1 2 3 4 5 6 7 8 9 10 11 12 13 14 15 16
000
FTUS41 KCLE 042112 AAA
TAFMFD
TAF AMD
KMFD 042112Z 0421/0518 24010KT 6SM -SHRA SCT015 OVC030
      TEMPO 0421/0501 3SM -SHRA OVC015
     FM050100 25007KT 6SM BR OVC015
     FM050400 30007KT 3SM BR OVC008
     FM051200 01010KT P6SM SCT012 BKN020
     FM051700 02012KT P6SM BKN035=

USA.gov is the U.S. government's official web portal to all federal, state and local government web resources and services.